createdAt,value
2022-10-05T00:01:35.837Z,24.30
2022-10-05T00:04:21.310Z,24.30
2022-10-05T00:07:10.944Z,24.30
2022-10-05T00:09:40.067Z,24.40
2022-10-05T00:12:20.078Z,24.40
2022-10-05T00:14:54.372Z,24.50
2022-10-05T00:17:27.114Z,24.50
2022-10-05T00:19:56.966Z,24.60
2022-10-05T00:22:33.812Z,24.60
2022-10-05T00:25:12.693Z,24.70
2022-10-05T00:27:42.232Z,24.70
2022-10-05T00:30:35.518Z,24.80
2022-10-05T00:33:04.722Z,24.90
2022-10-05T00:35:37.502Z,25.00
2022-10-05T00:38:06.852Z,25.00
2022-10-05T00:40:59.142Z,25.10
2022-10-05T00:43:59.396Z,25.10
2022-10-05T00:47:00.915Z,25.10
2022-10-05T00:50:14.104Z,25.20
2022-10-05T00:53:27.035Z,25.30
2022-10-05T00:56:20.484Z,25.40
2022-10-05T00:59:30.151Z,25.50
2022-10-05T01:02:39.987Z,25.60
2022-10-05T01:05:51.751Z,25.60
2022-10-05T01:09:10.047Z,25.80
2022-10-05T01:11:54.327Z,25.80
2022-10-05T01:14:55.945Z,25.90
2022-10-05T01:18:04.337Z,26.00
2022-10-05T01:21:14.890Z,26.10
2022-10-05T01:24:42.860Z,26.20
2022-10-05T01:27:55.947Z,26.30
2022-10-05T01:30:33.500Z,26.40
2022-10-05T01:33:33.635Z,26.40
2022-10-05T01:36:54.957Z,26.50
2022-10-05T01:39:55.175Z,26.60
2022-10-05T01:43:05.143Z,26.60
2022-10-05T01:46:12.380Z,26.70
2022-10-05T01:49:34.067Z,26.80
2022-10-05T01:52:47.298Z,26.90
2022-10-05T01:55:52.928Z,26.90
2022-10-05T01:59:02.771Z,27.00
2022-10-05T02:01:54.051Z,27.10
2022-10-05T02:05:00.886Z,27.10
2022-10-05T02:07:54.882Z,27.20
2022-10-05T02:10:56.766Z,27.30
2022-10-05T02:14:01.574Z,27.40
2022-10-05T02:16:50.842Z,27.40
2022-10-05T02:20:06.235Z,27.50
2022-10-05T02:22:43.589Z,27.50
2022-10-05T02:25:19.810Z,27.60
2022-10-05T02:28:24.777Z,27.60
2022-10-05T02:31:09.563Z,27.70
2022-10-05T02:33:39.139Z,27.70
2022-10-05T02:36:32.186Z,27.80
2022-10-05T02:39:36.195Z,27.90
2022-10-05T02:42:33.872Z,27.90
2022-10-05T02:45:44.393Z,28.00
2022-10-05T02:48:44.746Z,28.10
2022-10-05T02:51:53.509Z,28.10
2022-10-05T02:55:00.122Z,28.20
2022-10-05T02:57:48.868Z,28.30
2022-10-05T03:00:24.075Z,28.30
2022-10-05T03:03:28.081Z,28.40
2022-10-05T03:06:21.897Z,28.40
2022-10-05T03:09:06.483Z,28.50
2022-10-05T03:12:19.305Z,28.50
2022-10-05T03:15:21.600Z,28.60
2022-10-05T03:18:14.494Z,28.70
2022-10-05T03:21:38.855Z,28.80
2022-10-05T03:24:48.722Z,28.90
2022-10-05T03:28:02.385Z,29.00
2022-10-05T03:30:44.267Z,29.00
2022-10-05T03:33:50.351Z,29.10
2022-10-05T03:36:42.278Z,29.20
2022-10-05T03:39:40.068Z,29.30
2022-10-05T03:42:52.981Z,29.40
2022-10-05T03:45:50.044Z,29.50
2022-10-05T03:48:41.184Z,29.50
2022-10-05T03:51:46.297Z,29.60
2022-10-05T03:54:37.711Z,29.70
2022-10-05T03:57:25.747Z,29.80
2022-10-05T04:00:15.009Z,29.80
2022-10-05T04:03:11.331Z,29.90
2022-10-05T04:05:57.659Z,30.00
2022-10-05T04:08:54.946Z,30.00
2022-10-05T04:11:52.714Z,30.00
2022-10-05T04:14:41.775Z,30.10
2022-10-05T04:17:41.493Z,30.20
2022-10-05T04:20:44.385Z,30.30
2022-10-05T04:23:58.730Z,30.40
2022-10-05T04:27:06.756Z,30.40
2022-10-05T04:30:13.444Z,30.50
2022-10-05T04:33:02.474Z,30.60
2022-10-05T04:36:14.713Z,30.70
2022-10-05T04:39:20.914Z,30.80
2022-10-05T04:42:25.640Z,30.90
2022-10-05T04:45:24.457Z,31.00
2022-10-05T04:48:26.513Z,31.00
2022-10-05T04:51:34.678Z,31.10
2022-10-05T04:55:03.350Z,31.20
2022-10-05T04:58:17.468Z,31.30
2022-10-05T05:01:28.830Z,31.50
2022-10-05T05:04:48.215Z,31.70
2022-10-05T05:07:55.461Z,31.80
2022-10-05T05:11:12.467Z,31.90
2022-10-05T05:14:27.828Z,32.00
2022-10-05T05:17:39.605Z,31.90
2022-10-05T05:20:46.735Z,31.80
2022-10-05T05:23:56.570Z,31.80
2022-10-05T05:27:12.781Z,31.90
2022-10-05T05:30:15.800Z,31.90
2022-10-05T05:33:29.868Z,32.00
2022-10-05T05:36:48.395Z,32.20
2022-10-05T05:40:07.306Z,32.30
2022-10-05T05:43:03.554Z,32.50
2022-10-05T05:46:00.348Z,32.60
2022-10-05T05:48:50.413Z,32.60
2022-10-05T05:51:32.019Z,32.50
2022-10-05T05:54:38.121Z,32.40
2022-10-05T05:57:37.359Z,32.30
2022-10-05T06:00:30.129Z,32.20
2022-10-05T06:03:43.063Z,32.20
2022-10-05T06:06:18.502Z,32.20
2022-10-05T06:08:57.205Z,32.20
2022-10-05T06:11:36.300Z,32.10
2022-10-05T06:14:36.384Z,32.00
2022-10-05T06:17:34.647Z,32.10
2022-10-05T06:20:11.211Z,32.10
2022-10-05T06:22:47.011Z,32.20
2022-10-05T06:25:55.717Z,32.40
2022-10-05T06:28:28.367Z,32.50
2022-10-05T06:31:41.611Z,32.60
2022-10-05T06:34:49.133Z,32.70
2022-10-05T06:37:58.023Z,32.80
2022-10-05T06:41:07.636Z,32.80
2022-10-05T06:44:13.812Z,32.80
2022-10-05T06:47:24.900Z,32.70
2022-10-05T06:50:21.107Z,32.60
2022-10-05T06:53:21.658Z,32.60
2022-10-05T06:56:13.596Z,32.60
2022-10-05T06:59:16.453Z,32.60
2022-10-05T07:02:31.774Z,32.50
2022-10-05T07:05:46.555Z,32.40
2022-10-05T07:08:47.880Z,32.30
2022-10-05T07:12:02.271Z,32.30
2022-10-05T07:15:25.330Z,32.30
2022-10-05T07:18:27.020Z,32.20
2022-10-05T07:21:47.901Z,32.20
2022-10-05T07:24:42.970Z,32.10
2022-10-05T07:27:30.584Z,32.10
2022-10-05T07:30:13.062Z,32.20
2022-10-05T07:33:14.548Z,32.40
2022-10-05T07:36:39.273Z,32.50
2022-10-05T07:40:01.445Z,32.60
2022-10-05T07:42:53.668Z,32.70
2022-10-05T07:45:47.020Z,32.70
2022-10-05T07:48:51.318Z,32.80
2022-10-05T07:51:42.891Z,32.80
2022-10-05T07:55:04.230Z,32.80
2022-10-05T07:58:11.196Z,32.90
2022-10-05T08:01:20.265Z,33.00
2022-10-05T08:04:16.631Z,33.00
2022-10-05T08:07:11.232Z,33.10
2022-10-05T08:10:16.288Z,33.10
2022-10-05T08:13:22.090Z,33.20
2022-10-05T08:16:02.385Z,33.20
2022-10-05T08:18:58.269Z,33.20
2022-10-05T08:21:41.272Z,33.20
2022-10-05T08:24:42.610Z,33.10
2022-10-05T08:27:39.930Z,33.20
2022-10-05T08:30:14.584Z,33.20
2022-10-05T08:33:13.701Z,33.20
2022-10-05T08:36:09.958Z,33.20
2022-10-05T08:38:40.251Z,33.20
2022-10-05T08:42:08.196Z,33.20
2022-10-05T08:45:28.828Z,33.30
2022-10-05T08:48:46.983Z,33.30
2022-10-05T08:52:07.519Z,33.30
2022-10-05T08:55:28.584Z,33.20
2022-10-05T08:58:41.821Z,33.10
2022-10-05T09:01:56.552Z,33.10
2022-10-05T09:05:24.503Z,33.10
2022-10-05T09:08:43.809Z,33.00
2022-10-05T09:11:40.476Z,32.90
2022-10-05T09:14:39.923Z,32.80
2022-10-05T09:18:00.555Z,32.80
2022-10-05T09:21:05.539Z,32.80
2022-10-05T09:23:50.774Z,32.80
2022-10-05T09:27:01.917Z,32.80
2022-10-05T09:30:15.260Z,32.90
2022-10-05T09:33:27.974Z,32.90
2022-10-05T09:36:38.380Z,32.80
2022-10-05T09:40:00.456Z,32.80
2022-10-05T09:43:17.734Z,32.80
2022-10-05T09:46:21.720Z,32.80
2022-10-05T09:49:49.761Z,32.70
2022-10-05T09:53:14.685Z,32.70
2022-10-05T09:56:25.931Z,32.70
2022-10-05T09:59:28.786Z,32.50
2022-10-05T10:02:56.779Z,32.50
2022-10-05T10:06:06.381Z,32.50
2022-10-05T10:09:22.770Z,32.40
2022-10-05T10:12:35.190Z,32.40
2022-10-05T10:15:49.477Z,32.20
2022-10-05T10:19:10.053Z,32.10
2022-10-05T10:22:18.792Z,32.10
2022-10-05T10:25:24.486Z,31.90
2022-10-05T10:28:33.547Z,31.80
2022-10-05T10:31:38.424Z,31.70
2022-10-05T10:35:06.434Z,31.60
2022-10-05T10:38:20.880Z,31.50
2022-10-05T10:41:45.706Z,31.40
2022-10-05T10:44:55.809Z,31.30
2022-10-05T10:48:01.260Z,31.20
2022-10-05T10:51:14.640Z,31.00
2022-10-05T10:54:35.778Z,30.90
2022-10-05T10:57:46.966Z,30.80
2022-10-05T11:01:17.980Z,30.70
2022-10-05T11:04:27.665Z,30.70
2022-10-05T11:07:48.201Z,30.60
2022-10-05T11:10:49.862Z,30.50
2022-10-05T11:14:11.948Z,30.40
2022-10-05T11:17:18.834Z,30.30
2022-10-05T11:20:21.393Z,30.30
2022-10-05T11:23:49.324Z,30.20
2022-10-05T11:27:10.058Z,30.10
2022-10-05T11:30:38.012Z,30.10
2022-10-05T11:34:01.650Z,30.00
2022-10-05T11:37:09.802Z,30.00
2022-10-05T11:40:15.886Z,29.90
2022-10-05T11:43:37.738Z,29.90
2022-10-05T11:46:47.067Z,29.90
2022-10-05T11:49:47.475Z,29.80
2022-10-05T11:52:45.888Z,29.70
2022-10-05T11:55:34.974Z,29.60
2022-10-05T11:58:26.869Z,29.60
2022-10-05T12:01:18.948Z,29.50
2022-10-05T12:04:09.770Z,29.50
2022-10-05T12:07:31.574Z,29.40
2022-10-05T12:10:51.744Z,29.40
2022-10-05T12:14:05.921Z,29.30
2022-10-05T12:17:06.230Z,29.30
2022-10-05T12:19:47.517Z,29.30
2022-10-05T12:22:53.431Z,29.20
2022-10-05T12:25:58.508Z,29.20
2022-10-05T12:28:43.590Z,29.20
2022-10-05T12:31:50.122Z,29.20
2022-10-05T12:35:14.095Z,29.20
2022-10-05T12:38:04.783Z,29.10
2022-10-05T12:41:33.216Z,29.10
2022-10-05T12:44:47.124Z,29.10
2022-10-05T12:47:53.482Z,29.00
2022-10-05T12:50:38.358Z,29.00
2022-10-05T12:53:50.994Z,28.90
2022-10-05T12:56:54.717Z,28.90
2022-10-05T12:59:48.653Z,28.90
2022-10-05T13:02:45.454Z,28.80
2022-10-05T13:05:58.971Z,28.80
2022-10-05T13:09:12.193Z,28.80
2022-10-05T13:12:01.469Z,28.70
2022-10-05T13:15:09.614Z,28.70
2022-10-05T13:18:23.052Z,28.60
2022-10-05T13:21:21.329Z,28.60
2022-10-05T13:24:27.801Z,28.60
2022-10-05T13:27:36.596Z,28.50
2022-10-05T13:30:23.753Z,28.50
2022-10-05T13:33:16.735Z,28.50
2022-10-05T13:36:39.625Z,28.50
2022-10-05T13:39:52.761Z,28.50
2022-10-05T13:42:51.779Z,28.40
2022-10-05T13:45:38.981Z,28.40
2022-10-05T13:48:44.773Z,28.40
2022-10-05T13:51:43.142Z,28.40
2022-10-05T13:54:52.421Z,28.40
2022-10-05T13:58:06.883Z,28.40
2022-10-05T14:00:54.777Z,28.40
2022-10-05T14:03:38.790Z,28.40
2022-10-05T14:06:31.228Z,28.40
2022-10-05T14:09:13.747Z,28.40
2022-10-05T14:12:22.360Z,28.40
2022-10-05T14:15:01.836Z,28.40
2022-10-05T14:17:55.570Z,28.40
2022-10-05T14:20:35.838Z,28.30
2022-10-05T14:23:18.544Z,28.40
2022-10-05T14:26:03.634Z,28.40
2022-10-05T14:28:41.902Z,28.30
2022-10-05T14:31:34.440Z,28.30
2022-10-05T14:34:36.549Z,28.30
2022-10-05T14:37:28.241Z,28.30
2022-10-05T14:40:28.929Z,28.30
2022-10-05T14:43:22.353Z,28.20
2022-10-05T14:46:21.918Z,28.20
2022-10-05T14:49:27.567Z,28.20
2022-10-05T14:52:02.831Z,28.10
2022-10-05T14:55:09.392Z,28.10
2022-10-05T14:58:19.986Z,28.10
2022-10-05T15:01:19.372Z,28.10
2022-10-05T15:04:35.816Z,28.00
2022-10-05T15:07:41.308Z,28.00
2022-10-05T15:10:46.942Z,28.00
2022-10-05T15:13:32.557Z,27.90
2022-10-05T15:16:42.094Z,27.90
2022-10-05T15:19:59.407Z,27.90
2022-10-05T15:23:04.192Z,27.90
2022-10-05T15:25:50.101Z,27.80
2022-10-05T15:28:49.305Z,27.80
2022-10-05T15:32:11.679Z,27.80
2022-10-05T15:35:28.154Z,27.70
2022-10-05T15:38:31.949Z,27.70
2022-10-05T15:41:30.226Z,27.70
2022-10-05T15:44:38.500Z,27.70
2022-10-05T15:47:48.343Z,27.70
2022-10-05T15:51:13.273Z,27.70
2022-10-05T15:54:28.439Z,27.70
2022-10-05T15:57:12.994Z,27.70
2022-10-05T16:00:08.065Z,27.60
2022-10-05T16:03:13.733Z,27.70
2022-10-05T16:06:28.492Z,27.60
2022-10-05T16:09:26.229Z,27.60
2022-10-05T16:12:33.662Z,27.60
2022-10-05T16:15:39.121Z,27.60
2022-10-05T16:18:49.335Z,27.50
2022-10-05T16:22:05.412Z,27.50
2022-10-05T16:25:33.396Z,27.50
2022-10-05T16:28:40.390Z,27.40
2022-10-05T16:32:06.204Z,27.40
2022-10-05T16:35:21.585Z,27.40
2022-10-05T16:38:48.658Z,27.40
2022-10-05T16:41:54.655Z,27.40
2022-10-05T16:44:56.438Z,27.40
2022-10-05T16:48:03.368Z,27.30
2022-10-05T16:51:25.974Z,27.30
2022-10-05T16:54:35.695Z,27.30
2022-10-05T16:57:40.537Z,27.30
2022-10-05T17:00:39.166Z,27.30
2022-10-05T17:03:41.006Z,27.20
2022-10-05T17:06:43.905Z,27.20
2022-10-05T17:09:51.144Z,27.20
2022-10-05T17:13:07.769Z,27.20
2022-10-05T17:16:11.372Z,27.20
2022-10-05T17:19:17.524Z,27.10
2022-10-05T17:22:32.324Z,27.10
2022-10-05T17:25:57.335Z,27.10
2022-10-05T17:29:18.361Z,27.10
2022-10-05T17:32:37.101Z,27.10
2022-10-05T17:35:23.135Z,27.10
2022-10-05T17:38:31.065Z,27.00
2022-10-05T17:41:31.190Z,27.00
2022-10-05T17:44:22.659Z,27.00
2022-10-05T17:47:15.013Z,27.00
2022-10-05T17:50:14.555Z,26.90
2022-10-05T17:53:02.073Z,26.90
2022-10-05T17:55:49.946Z,26.90
2022-10-05T17:59:02.524Z,26.90
2022-10-05T18:01:42.451Z,26.90
2022-10-05T18:04:40.871Z,26.90
2022-10-05T18:07:25.182Z,26.90
2022-10-05T18:10:29.757Z,26.90
2022-10-05T18:13:42.620Z,26.90
2022-10-05T18:16:13.202Z,26.90
2022-10-05T18:18:59.512Z,26.90
2022-10-05T18:21:36.659Z,26.90
2022-10-05T18:24:46.273Z,26.90
2022-10-05T18:27:45.945Z,26.90
2022-10-05T18:30:39.772Z,26.90
2022-10-05T18:33:50.735Z,26.80
2022-10-05T18:37:06.140Z,26.80
2022-10-05T18:40:13.253Z,26.80
2022-10-05T18:43:18.485Z,26.90
2022-10-05T18:46:42.910Z,26.80
2022-10-05T18:49:43.771Z,26.90
2022-10-05T18:53:07.904Z,26.80
2022-10-05T18:56:21.482Z,26.80
2022-10-05T18:59:43.455Z,26.80
2022-10-05T19:02:33.677Z,26.80
2022-10-05T19:05:53.428Z,26.80
2022-10-05T19:09:06.649Z,26.80
2022-10-05T19:12:32.291Z,26.80
2022-10-05T19:15:36.382Z,26.80
2022-10-05T19:18:46.579Z,26.80
2022-10-05T19:21:45.694Z,26.80
2022-10-05T19:24:52.736Z,26.80
2022-10-05T19:28:08.731Z,26.80
2022-10-05T19:31:15.114Z,26.80
2022-10-05T19:34:33.824Z,26.80
2022-10-05T19:37:45.005Z,26.80
2022-10-05T19:40:41.046Z,26.80
2022-10-05T19:43:53.451Z,26.80
2022-10-05T19:47:02.412Z,26.70
2022-10-05T19:50:04.821Z,26.70
2022-10-05T19:52:49.798Z,26.70
2022-10-05T19:55:44.829Z,26.70
2022-10-05T19:58:28.316Z,26.70
2022-10-05T20:01:07.901Z,26.70
2022-10-05T20:03:39.739Z,26.70
2022-10-05T20:06:12.151Z,26.60
2022-10-05T20:08:45.819Z,26.60
2022-10-05T20:11:19.868Z,26.60
2022-10-05T20:14:32.120Z,26.60
2022-10-05T20:17:40.344Z,26.60
2022-10-05T20:20:48.487Z,26.60
2022-10-05T20:23:31.450Z,26.60
2022-10-05T20:26:12.991Z,26.60
2022-10-05T20:28:42.393Z,26.60
2022-10-05T20:31:11.855Z,26.60
2022-10-05T20:33:41.939Z,26.50
2022-10-05T20:36:11.167Z,26.50
2022-10-05T20:38:41.294Z,26.50
2022-10-05T20:41:13.465Z,26.50
2022-10-05T20:43:42.907Z,26.50
2022-10-05T20:46:12.694Z,26.40
2022-10-05T20:48:41.792Z,26.40
2022-10-05T20:51:13.508Z,26.40
2022-10-05T20:53:43.672Z,26.40
2022-10-05T20:56:13.530Z,26.40
2022-10-05T20:58:44.947Z,26.40
2022-10-05T21:01:21.036Z,26.40
2022-10-05T21:03:55.475Z,26.30
2022-10-05T21:06:32.967Z,26.30
2022-10-05T21:09:02.204Z,26.30
2022-10-05T21:11:31.418Z,26.30
2022-10-05T21:14:04.887Z,26.30
2022-10-05T21:16:40.937Z,26.30
2022-10-05T21:19:17.526Z,26.20
2022-10-05T21:21:48.181Z,26.20
2022-10-05T21:24:21.275Z,26.20
2022-10-05T21:26:53.008Z,26.20
2022-10-05T21:29:24.599Z,26.20
2022-10-05T21:31:53.950Z,26.20
2022-10-05T21:34:23.127Z,26.20
2022-10-05T21:36:55.177Z,26.20
2022-10-05T21:39:25.614Z,26.20
2022-10-05T21:41:55.003Z,26.20
2022-10-05T21:44:24.691Z,26.10
2022-10-05T21:46:54.929Z,26.10
2022-10-05T21:49:24.804Z,26.10
2022-10-05T21:51:54.097Z,26.10
2022-10-05T21:54:25.119Z,26.10
2022-10-05T21:56:58.640Z,26.10
2022-10-05T21:59:34.337Z,26.10
2022-10-05T22:02:05.728Z,26.00
2022-10-05T22:04:34.845Z,26.00
2022-10-05T22:07:07.616Z,26.00
2022-10-05T22:09:37.020Z,26.00
2022-10-05T22:12:07.155Z,26.00
2022-10-05T22:14:36.292Z,26.00
2022-10-05T22:17:06.233Z,26.00
2022-10-05T22:19:38.230Z,26.00
2022-10-05T22:22:11.728Z,26.00
2022-10-05T22:24:41.095Z,26.00
2022-10-05T22:27:10.580Z,25.90
2022-10-05T22:29:43.856Z,25.90
2022-10-05T22:32:13.170Z,25.90
2022-10-05T22:34:42.332Z,25.90
2022-10-05T22:37:19.998Z,25.90
2022-10-05T22:39:53.128Z,25.90
2022-10-05T22:42:23.879Z,25.80
2022-10-05T22:44:55.708Z,25.80
2022-10-05T22:47:24.814Z,25.80
2022-10-05T22:49:56.286Z,25.80
2022-10-05T22:52:25.486Z,25.80
2022-10-05T22:54:55.408Z,25.80
2022-10-05T22:57:30.572Z,25.80
2022-10-05T22:59:59.975Z,25.80
2022-10-05T23:02:29.192Z,25.80
2022-10-05T23:04:59.983Z,25.80
2022-10-05T23:07:31.784Z,25.80
2022-10-05T23:10:01.010Z,25.90
2022-10-05T23:12:30.236Z,25.90
2022-10-05T23:14:59.445Z,25.90
2022-10-05T23:17:30.128Z,25.90
2022-10-05T23:20:00.270Z,25.90
2022-10-05T23:22:29.557Z,25.90
2022-10-05T23:24:58.862Z,25.90
2022-10-05T23:27:28.070Z,25.80
2022-10-05T23:29:57.196Z,25.90
2022-10-05T23:32:31.273Z,25.90
2022-10-05T23:35:01.333Z,25.90
2022-10-05T23:37:31.137Z,25.90
2022-10-05T23:40:00.495Z,25.90
2022-10-05T23:42:29.713Z,25.90
2022-10-05T23:44:58.908Z,25.90
2022-10-05T23:47:28.152Z,26.00
2022-10-05T23:50:02.832Z,26.00
2022-10-05T23:52:32.086Z,26.00
2022-10-05T23:55:01.760Z,26.00
2022-10-05T23:57:30.840Z,26.00
